Terminal Aerodrome Forecast
Issued by NWS Tampa Bay Area, FL

Home | Current Version | Previous Version | Text Only | Print | Product List | Glossary Off
Versions: 1 2 3 4 5 6 7 8 9 10 11 12 13 14 15 16 17 18 19

000
FTUS42 KTBW 200520
TAFSRQ
TAF
KSRQ 200520Z 2006/2106 11006KT P6SM SKC
     FM201300 13012KT P6SM SCT030 SCT100
     FM201900 21013KT P6SM VCTS FEW025CB SCT050 BKN150
     FM202100 22009KT P6SM VCTS SCT025CB BKN060
     FM210000 18004KT P6SM VCSH SCT045 BKN060
     FM210200 11005KT P6SM FEW045 SCT060=

USA.gov is the U.S. government's official web portal to all federal, state and local government web resources and services.